createdAt,value
2022-11-08T00:00:02.047Z,100600.44
2022-11-08T00:02:31.330Z,100594.97
2022-11-08T00:04:58.028Z,100595.94
2022-11-08T00:07:43.408Z,100597.88
2022-11-08T00:10:28.447Z,100602.28
2022-11-08T00:13:15.088Z,100598.94
2022-11-08T00:15:41.672Z,100598.84
2022-11-08T00:18:08.353Z,100599.00
2022-11-08T00:20:34.977Z,100589.31
2022-11-08T00:23:02.096Z,100594.66
2022-11-08T00:25:28.794Z,100596.28
2022-11-08T00:27:55.517Z,100599.06
2022-11-08T00:30:22.267Z,100593.75
2022-11-08T00:32:48.977Z,100596.50
2022-11-08T00:35:16.376Z,100600.66
2022-11-08T00:37:43.242Z,100601.75
2022-11-08T00:40:10.616Z,100609.63
2022-11-08T00:42:37.220Z,100596.50
2022-11-08T00:45:04.304Z,100613.88
2022-11-08T00:47:31.084Z,100606.03
2022-11-08T00:49:57.739Z,100604.31
2022-11-08T00:52:24.391Z,100600.88
2022-11-08T00:54:50.990Z,100602.50
2022-11-08T00:57:17.603Z,100600.75
2022-11-08T00:59:44.242Z,100606.97
2022-11-08T01:02:10.914Z,100614.72
2022-11-08T01:04:37.559Z,100612.13
2022-11-08T01:07:04.194Z,100609.44
2022-11-08T01:09:30.764Z,100597.81
2022-11-08T01:11:57.478Z,100606.69
2022-11-08T01:14:24.084Z,100598.75
2022-11-08T01:16:50.754Z,100597.69
2022-11-08T01:19:17.335Z,100596.88
2022-11-08T01:21:44.101Z,100598.69
2022-11-08T01:24:10.758Z,100597.81
2022-11-08T01:26:37.357Z,100584.44
2022-11-08T01:29:04.071Z,100589.72
2022-11-08T01:31:32.370Z,100586.06
2022-11-08T01:33:59.437Z,100586.19
2022-11-08T01:36:27.710Z,100582.72
2022-11-08T01:38:54.558Z,100582.53
2022-11-08T01:41:23.576Z,100577.22
2022-11-08T01:43:51.739Z,100583.25
2022-11-08T01:46:18.293Z,100585.97
2022-11-08T01:48:53.513Z,100571.06
2022-11-08T01:51:23.462Z,100572.69
2022-11-08T01:53:50.973Z,100574.59
2022-11-08T01:56:17.933Z,100578.88
2022-11-08T01:58:46.992Z,100577.84
2022-11-08T02:01:13.634Z,100583.94
2022-11-08T02:03:41.196Z,100578.72
2022-11-08T02:06:08.164Z,100590.13
2022-11-08T02:08:41.063Z,100585.75
2022-11-08T02:11:08.876Z,100574.31
2022-11-08T02:13:37.584Z,100586.63
2022-11-08T02:16:09.668Z,100583.16
2022-11-08T02:18:36.448Z,100584.00
2022-11-08T02:21:02.926Z,100583.00
2022-11-08T02:23:43.776Z,100586.59
2022-11-08T02:26:10.529Z,100579.50
2022-11-08T02:28:41.404Z,100578.81
2022-11-08T02:31:09.649Z,100569.09
2022-11-08T02:33:36.362Z,100571.69
2022-11-08T02:36:03.644Z,100570.66
2022-11-08T02:38:30.422Z,100566.25
2022-11-08T02:40:57.444Z,100578.72
2022-11-08T02:43:24.801Z,100577.03
2022-11-08T02:45:52.314Z,100573.47
2022-11-08T02:48:20.429Z,100575.34
2022-11-08T02:50:47.466Z,100575.25
2022-11-08T02:53:14.219Z,100574.31
2022-11-08T02:55:40.920Z,100576.19
2022-11-08T02:58:07.585Z,100578.72
2022-11-08T03:00:34.767Z,100575.28
2022-11-08T03:03:01.428Z,100580.56
2022-11-08T03:05:28.668Z,100578.69
2022-11-08T03:07:55.897Z,100580.59
2022-11-08T03:10:24.390Z,100594.50
2022-11-08T03:12:58.994Z,100587.53
2022-11-08T03:15:25.676Z,100588.16
2022-11-08T03:17:52.407Z,100581.19
2022-11-08T03:20:19.392Z,100582.84
2022-11-08T03:22:46.518Z,100575.03
2022-11-08T03:25:13.559Z,100586.41
2022-11-08T03:27:40.489Z,100589.13
2022-11-08T03:30:07.696Z,100593.34
2022-11-08T03:32:34.352Z,100595.09
2022-11-08T03:35:04.662Z,100590.56
2022-11-08T03:37:31.278Z,100584.97
2022-11-08T03:39:57.963Z,100577.13
2022-11-08T03:42:24.564Z,100569.34
2022-11-08T03:44:51.136Z,100575.47
2022-11-08T03:47:17.749Z,100571.91
2022-11-08T03:49:44.373Z,100574.50
2022-11-08T03:52:11.018Z,100579.00
2022-11-08T03:54:37.681Z,100579.97
2022-11-08T03:57:04.375Z,100590.50
2022-11-08T03:59:31.051Z,100585.94
2022-11-08T04:01:57.839Z,100578.19
2022-11-08T04:04:24.511Z,100585.84
2022-11-08T04:06:51.276Z,100584.13
2022-11-08T04:09:21.484Z,100573.69
2022-11-08T04:12:07.085Z,100581.56
2022-11-08T04:14:52.226Z,100573.69
2022-11-08T04:17:18.911Z,100577.94
2022-11-08T04:20:04.283Z,100583.19
2022-11-08T04:22:30.915Z,100584.06
2022-11-08T04:24:57.508Z,100585.75
2022-11-08T04:27:24.126Z,100590.25
2022-11-08T04:29:50.766Z,100588.53
2022-11-08T04:32:17.377Z,100588.28
2022-11-08T04:34:43.981Z,100588.47
2022-11-08T04:37:13.844Z,100594.63
2022-11-08T04:39:40.462Z,100581.38
2022-11-08T04:42:07.073Z,100579.53
2022-11-08T04:44:33.730Z,100576.00
2022-11-08T04:47:00.379Z,100585.59
2022-11-08T04:49:27.198Z,100573.41
2022-11-08T04:51:55.901Z,100577.88
2022-11-08T04:54:22.596Z,100577.00
2022-11-08T04:56:49.223Z,100575.28
2022-11-08T04:59:16.187Z,100578.03
2022-11-08T05:01:43.204Z,100579.75
2022-11-08T05:04:10.212Z,100583.19
2022-11-08T05:06:36.853Z,100584.94
2022-11-08T05:09:03.610Z,100580.59
2022-11-08T05:11:31.022Z,100585.00
2022-11-08T05:13:57.957Z,100579.69
2022-11-08T05:16:31.885Z,100574.59
2022-11-08T05:18:58.908Z,100582.56
2022-11-08T05:21:44.169Z,100582.72
2022-11-08T05:24:13.080Z,100590.84
2022-11-08T05:26:44.864Z,100587.44
2022-11-08T05:29:12.447Z,100582.28
2022-11-08T05:31:39.408Z,100585.81
2022-11-08T05:34:07.357Z,100583.31
2022-11-08T05:36:34.093Z,100579.94
2022-11-08T05:39:00.946Z,100580.94
2022-11-08T05:41:27.598Z,100583.69
2022-11-08T05:43:55.147Z,100586.38
2022-11-08T05:46:22.829Z,100593.50
2022-11-08T05:48:50.388Z,100588.16
2022-11-08T05:51:18.769Z,100593.47
2022-11-08T05:53:47.094Z,100589.16
2022-11-08T05:56:13.946Z,100594.53
2022-11-08T05:58:40.524Z,100590.19
2022-11-08T06:01:09.998Z,100599.00
2022-11-08T06:03:37.269Z,100601.69
2022-11-08T06:06:08.063Z,100592.06
2022-11-08T06:08:35.518Z,100585.22
2022-11-08T06:11:11.022Z,100587.13
2022-11-08T06:13:37.687Z,100595.06
2022-11-08T06:16:06.816Z,100595.19
2022-11-08T06:18:34.337Z,100591.72
2022-11-08T06:21:01.801Z,100597.06
2022-11-08T06:23:28.582Z,100606.69
2022-11-08T06:25:55.504Z,100604.19
2022-11-08T06:28:22.205Z,100606.03
2022-11-08T06:30:48.900Z,100604.41
2022-11-08T06:33:15.959Z,100605.38
2022-11-08T06:35:42.792Z,100604.50
2022-11-08T06:38:10.388Z,100608.06
2022-11-08T06:40:40.575Z,100608.91
2022-11-08T06:43:07.195Z,100609.88
2022-11-08T06:45:33.839Z,100613.41
2022-11-08T06:48:02.294Z,100609.94
2022-11-08T06:50:30.510Z,100610.84
2022-11-08T06:53:02.028Z,100609.97
2022-11-08T06:55:29.762Z,100617.88
2022-11-08T06:57:56.645Z,100609.94
2022-11-08T07:00:23.531Z,100617.84
2022-11-08T07:02:54.490Z,100614.31
2022-11-08T07:05:21.642Z,100626.53
2022-11-08T07:07:54.726Z,100627.38
2022-11-08T07:10:23.269Z,100623.88
2022-11-08T07:12:58.704Z,100622.97
2022-11-08T07:15:25.376Z,100626.41
2022-11-08T07:17:52.069Z,100624.66
2022-11-08T07:20:18.891Z,100617.44
2022-11-08T07:22:45.552Z,100615.72
2022-11-08T07:25:12.235Z,100609.56
2022-11-08T07:27:38.854Z,100618.34
2022-11-08T07:30:06.058Z,100626.88
2022-11-08T07:32:32.949Z,100620.00
2022-11-08T07:34:59.595Z,100617.31
2022-11-08T07:37:26.226Z,100619.00
2022-11-08T07:39:52.845Z,100618.13
2022-11-08T07:42:19.486Z,100625.97
2022-11-08T07:44:46.085Z,100622.50
2022-11-08T07:47:12.702Z,100619.81
2022-11-08T07:49:39.397Z,100624.84
2022-11-08T07:52:14.789Z,100620.31
2022-11-08T07:54:58.780Z,100623.88
2022-11-08T07:57:29.317Z,100628.97
2022-11-08T08:00:02.366Z,100619.19
2022-11-08T08:02:33.511Z,100620.81
2022-11-08T08:05:01.096Z,100618.06
2022-11-08T08:08:00.304Z,100621.59
2022-11-08T08:10:36.460Z,100613.69
2022-11-08T08:13:03.462Z,100618.78
2022-11-08T08:15:58.153Z,100617.03
2022-11-08T08:18:28.943Z,100615.34
2022-11-08T08:20:55.638Z,100609.22
2022-11-08T08:23:22.261Z,100601.84
2022-11-08T08:25:48.946Z,100607.25
2022-11-08T08:28:15.552Z,100597.34
2022-11-08T08:30:42.246Z,100604.34
2022-11-08T08:33:27.784Z,100605.97
2022-11-08T08:35:57.505Z,100597.03
2022-11-08T08:38:24.172Z,100596.16
2022-11-08T08:40:51.370Z,100603.72
2022-11-08T08:43:18.547Z,100604.63
2022-11-08T08:45:45.901Z,100592.84
2022-11-08T08:48:12.537Z,100590.94
2022-11-08T08:50:39.196Z,100584.75
2022-11-08T08:53:06.131Z,100592.38
2022-11-08T08:55:35.518Z,100587.81
2022-11-08T08:58:02.167Z,100584.81
2022-11-08T09:03:15.809Z,100588.22
2022-11-08T09:05:44.130Z,100579.69
2022-11-08T09:08:11.435Z,100589.22
2022-11-08T09:10:38.198Z,100586.41
2022-11-08T09:13:05.166Z,100579.84
2022-11-08T09:15:31.843Z,100580.94
2022-11-08T09:17:58.460Z,100580.72
2022-11-08T09:20:25.516Z,100572.50
2022-11-08T09:22:52.104Z,100569.03
2022-11-08T09:25:18.834Z,100575.88
2022-11-08T09:27:45.447Z,100572.16
2022-11-08T09:30:12.126Z,100569.13
2022-11-08T09:32:59.721Z,100568.59
2022-11-08T09:35:25.565Z,100576.91
2022-11-08T09:37:55.602Z,100568.75
2022-11-08T09:40:46.179Z,100567.66
2022-11-08T09:43:37.651Z,100569.19
2022-11-08T09:46:04.469Z,100563.59
2022-11-08T09:48:36.406Z,100561.78
2022-11-08T09:51:10.309Z,100561.59
2022-11-08T09:53:54.521Z,100553.38
2022-11-08T09:56:36.007Z,100553.81
2022-11-08T09:59:25.754Z,100554.28
2022-11-08T10:01:52.495Z,100543.31
2022-11-08T10:04:24.670Z,100546.47
2022-11-08T10:07:07.382Z,100544.16
2022-11-08T10:10:11.750Z,100547.13
2022-11-08T10:12:47.725Z,100544.88
2022-11-08T10:15:34.536Z,100543.69
2022-11-08T10:18:20.292Z,100542.91
2022-11-08T10:21:02.041Z,100538.50
2022-11-08T10:23:41.143Z,100537.44
2022-11-08T10:26:20.591Z,100528.28
2022-11-08T10:29:01.763Z,100535.94
2022-11-08T10:31:32.970Z,100533.13
2022-11-08T10:34:00.905Z,100530.34
2022-11-08T10:36:32.071Z,100533.06
2022-11-08T10:39:14.040Z,100532.78
2022-11-08T10:41:54.617Z,100532.03
2022-11-08T10:44:24.299Z,100529.31
2022-11-08T10:47:02.181Z,100521.00
2022-11-08T10:49:33.945Z,100525.94
2022-11-08T10:52:12.753Z,100514.38
2022-11-08T10:54:48.480Z,100518.91
2022-11-08T10:57:39.556Z,100517.59
2022-11-08T11:00:15.212Z,100516.88
2022-11-08T11:02:42.980Z,100506.75
2022-11-08T11:05:31.398Z,100507.19
2022-11-08T11:08:04.739Z,100497.88
2022-11-08T11:10:33.058Z,100501.50
2022-11-08T11:16:04.638Z,100491.56
2022-11-08T11:18:53.153Z,100491.91
2022-11-08T11:21:22.350Z,100493.03
2022-11-08T11:23:54.023Z,100491.97
2022-11-08T11:26:40.791Z,100478.84
2022-11-08T11:29:16.856Z,100483.47
2022-11-08T11:31:46.456Z,100480.03
2022-11-08T11:34:18.993Z,100481.66
2022-11-08T11:36:50.838Z,100478.06
2022-11-08T11:39:37.479Z,100471.41
2022-11-08T11:42:39.318Z,100473.03
2022-11-08T11:45:09.124Z,100472.69
2022-11-08T11:47:53.521Z,100462.75
2022-11-08T11:50:32.430Z,100459.75
2022-11-08T11:53:01.111Z,100457.97
2022-11-08T11:55:47.785Z,100454.59
2022-11-08T11:58:41.595Z,100453.34
2022-11-08T12:01:20.868Z,100446.66
2022-11-08T12:04:07.180Z,100443.44
2022-11-08T12:06:51.297Z,100441.44
2022-11-08T12:09:36.636Z,100444.44
2022-11-08T12:12:12.808Z,100437.47
2022-11-08T12:14:53.373Z,100431.63
2022-11-08T12:17:35.050Z,100423.47
2022-11-08T12:20:27.136Z,100424.25
2022-11-08T12:22:56.926Z,100424.00
2022-11-08T12:25:29.259Z,100412.03
2022-11-08T12:28:13.803Z,100415.91
2022-11-08T12:30:51.130Z,100415.34
2022-11-08T12:33:43.060Z,100421.34
2022-11-08T12:36:22.145Z,100412.66
2022-11-08T12:38:56.822Z,100417.22
2022-11-08T12:41:52.187Z,100405.00
2022-11-08T12:44:52.205Z,100409.81
2022-11-08T12:47:28.818Z,100409.66
2022-11-08T12:50:13.379Z,100400.41
2022-11-08T12:52:46.923Z,100401.25
2022-11-08T12:55:37.611Z,100392.31
2022-11-08T12:58:52.521Z,100376.84
2022-11-08T13:01:21.370Z,100378.25
2022-11-08T13:04:19.628Z,100359.31
2022-11-08T13:06:51.727Z,100368.41
2022-11-08T13:09:29.099Z,100369.34
2022-11-08T13:12:25.116Z,100354.06
2022-11-08T13:14:52.378Z,100356.44
2022-11-08T13:17:22.653Z,100356.22
2022-11-08T13:19:52.819Z,100354.28
2022-11-08T13:22:29.758Z,100347.38
2022-11-08T13:25:08.778Z,100345.09
2022-11-08T13:27:38.314Z,100345.31
2022-11-08T13:30:10.921Z,100337.78
2022-11-08T13:32:43.673Z,100332.78
2022-11-08T13:35:22.568Z,100332.63
2022-11-08T13:37:58.296Z,100337.69
2022-11-08T13:40:36.942Z,100334.75
2022-11-08T13:43:23.364Z,100335.31
2022-11-08T13:45:50.432Z,100329.59
2022-11-08T13:48:37.444Z,100335.53
2022-11-08T13:51:26.160Z,100324.47
2022-11-08T13:53:58.172Z,100330.56
2022-11-08T13:56:40.729Z,100327.25
2022-11-08T13:59:29.204Z,100329.16
2022-11-08T14:02:03.390Z,100328.84
2022-11-08T14:04:30.887Z,100318.34
2022-11-08T14:07:02.486Z,100323.88
2022-11-08T14:10:03.106Z,100324.53
2022-11-08T14:12:32.943Z,100317.69
2022-11-08T14:15:10.398Z,100314.75
2022-11-08T14:17:49.186Z,100313.88
2022-11-08T14:20:23.303Z,100319.56
2022-11-08T14:22:50.675Z,100318.72
2022-11-08T14:25:31.502Z,100317.69
2022-11-08T14:27:58.812Z,100313.31
2022-11-08T14:30:26.157Z,100321.94
2022-11-08T14:33:29.652Z,100323.69
2022-11-08T14:36:07.369Z,100320.41
2022-11-08T14:38:36.952Z,100327.31
2022-11-08T14:41:06.772Z,100314.25
2022-11-08T14:43:46.105Z,100311.06
2022-11-08T14:46:18.606Z,100321.13
2022-11-08T14:48:56.843Z,100308.88
2022-11-08T14:51:25.129Z,100314.69
2022-11-08T14:53:53.738Z,100322.56
2022-11-08T14:56:25.661Z,100324.66
2022-11-08T14:58:53.849Z,100311.56
2022-11-08T15:01:26.160Z,100319.06
2022-11-08T15:03:56.676Z,100313.19
2022-11-08T15:06:39.518Z,100301.47
2022-11-08T15:09:07.384Z,100291.22
2022-11-08T15:11:40.021Z,100294.09
2022-11-08T15:14:09.130Z,100299.81
2022-11-08T15:16:47.249Z,100293.72
2022-11-08T15:19:42.656Z,100292.94
2022-11-08T15:22:40.258Z,100298.38
2022-11-08T15:25:30.074Z,100299.91
2022-11-08T15:27:58.566Z,100316.06
2022-11-08T15:30:31.373Z,100311.91
2022-11-08T15:32:58.286Z,100302.41
2022-11-08T15:35:36.665Z,100300.44
2022-11-08T15:38:39.619Z,100311.22
2022-11-08T15:41:32.928Z,100320.41
2022-11-08T15:44:22.357Z,100319.31
2022-11-08T15:46:50.140Z,100318.69
2022-11-08T15:49:19.280Z,100307.66
2022-11-08T15:51:47.199Z,100304.13
2022-11-08T15:54:14.016Z,100303.13
2022-11-08T15:56:41.274Z,100298.56
2022-11-08T15:59:16.261Z,100299.22
2022-11-08T16:01:50.840Z,100298.88
2022-11-08T16:04:17.552Z,100295.84
2022-11-08T16:06:44.451Z,100302.19
2022-11-08T16:09:11.200Z,100297.56
2022-11-08T16:11:40.634Z,100289.94
2022-11-08T16:14:10.390Z,100293.00
2022-11-08T16:16:36.980Z,100287.94
2022-11-08T16:19:03.609Z,100283.84
2022-11-08T16:21:30.248Z,100289.13
2022-11-08T16:23:56.884Z,100289.13
2022-11-08T16:26:23.596Z,100292.72
2022-11-08T16:28:50.293Z,100295.97
2022-11-08T16:31:18.060Z,100292.66
2022-11-08T16:33:45.924Z,100277.75
2022-11-08T16:36:18.392Z,100280.69
2022-11-08T16:38:53.156Z,100279.88
2022-11-08T16:41:20.483Z,100280.50
2022-11-08T16:43:47.174Z,100278.34
2022-11-08T16:46:14.079Z,100280.06
2022-11-08T16:48:46.280Z,100284.81
2022-11-08T16:51:17.593Z,100277.84
2022-11-08T16:53:44.246Z,100279.84
2022-11-08T16:56:10.898Z,100275.25
2022-11-08T16:58:37.700Z,100278.06
2022-11-08T17:01:10.293Z,100282.31
2022-11-08T17:03:37.517Z,100277.25
2022-11-08T17:06:04.139Z,100279.97
2022-11-08T17:08:30.727Z,100279.94
2022-11-08T17:10:57.312Z,100281.81
2022-11-08T17:13:23.906Z,100284.47
2022-11-08T17:15:51.046Z,100278.31
2022-11-08T17:18:20.740Z,100285.88
2022-11-08T17:20:47.885Z,100285.38
2022-11-08T17:23:16.436Z,100287.91
2022-11-08T17:25:44.488Z,100281.13
2022-11-08T17:28:12.443Z,100282.13
2022-11-08T17:30:44.204Z,100279.19
2022-11-08T17:33:12.736Z,100276.41
2022-11-08T17:35:42.863Z,100279.97
2022-11-08T17:38:11.059Z,100278.34
2022-11-08T17:40:37.664Z,100281.16
2022-11-08T17:43:04.429Z,100286.56
2022-11-08T17:45:31.066Z,100277.75
2022-11-08T17:47:57.702Z,100286.56
2022-11-08T17:50:24.326Z,100289.25
2022-11-08T17:52:53.533Z,100283.16
2022-11-08T17:55:20.399Z,100286.28
2022-11-08T17:57:47.010Z,100286.84
2022-11-08T18:00:14.194Z,100284.72
2022-11-08T18:02:40.802Z,100295.59
2022-11-08T18:05:07.717Z,100283.97
2022-11-08T18:07:34.682Z,100296.00
2022-11-08T18:10:02.706Z,100294.66
2022-11-08T18:12:31.262Z,100288.78
2022-11-08T18:14:57.881Z,100292.34
2022-11-08T18:17:24.549Z,100291.66
2022-11-08T18:19:51.252Z,100289.16
2022-11-08T18:22:17.831Z,100292.06
2022-11-08T18:24:47.464Z,100283.06
2022-11-08T18:27:16.618Z,100284.25
2022-11-08T18:29:43.315Z,100278.19
2022-11-08T18:32:09.995Z,100277.84
2022-11-08T18:34:36.613Z,100276.97
2022-11-08T18:37:03.187Z,100276.28
2022-11-08T18:39:29.778Z,100279.63
2022-11-08T18:41:56.357Z,100280.69
2022-11-08T18:44:22.962Z,100286.19
2022-11-08T18:46:49.561Z,100280.91
2022-11-08T18:49:16.416Z,100282.03
2022-11-08T18:51:43.016Z,100263.28
2022-11-08T18:54:09.609Z,100274.00
2022-11-08T18:56:36.311Z,100277.66
2022-11-08T18:59:02.940Z,100275.78
2022-11-08T19:01:29.698Z,100277.56
2022-11-08T19:03:56.467Z,100266.94
2022-11-08T19:06:23.081Z,100271.41
2022-11-08T19:08:49.713Z,100275.94
2022-11-08T19:11:20.475Z,100284.66
2022-11-08T19:13:47.455Z,100285.66
2022-11-08T19:16:16.478Z,100287.72
2022-11-08T19:18:44.253Z,100282.44
2022-11-08T19:21:14.255Z,100281.63
2022-11-08T19:23:41.022Z,100288.84
2022-11-08T19:26:11.001Z,100284.47
2022-11-08T19:28:39.684Z,100285.91
2022-11-08T19:31:06.934Z,100299.44
2022-11-08T19:33:33.871Z,100286.25
2022-11-08T19:36:05.542Z,100288.19
2022-11-08T19:38:36.130Z,100285.47
2022-11-08T19:41:07.052Z,100285.34
2022-11-08T19:43:35.183Z,100276.56
2022-11-08T19:46:03.678Z,100272.28
2022-11-08T19:48:32.410Z,100278.34
2022-11-08T19:51:04.128Z,100273.47
2022-11-08T19:53:30.783Z,100271.38
2022-11-08T19:56:01.960Z,100272.63
2022-11-08T19:58:28.693Z,100270.00
2022-11-08T20:00:56.177Z,100270.94
2022-11-08T20:03:22.866Z,100262.25
2022-11-08T20:05:53.648Z,100268.00
2022-11-08T20:08:21.297Z,100266.19
2022-11-08T20:10:52.132Z,100276.94
2022-11-08T20:13:18.947Z,100271.81
2022-11-08T20:15:48.494Z,100277.34
2022-11-08T20:18:15.670Z,100284.19
2022-11-08T20:20:43.529Z,100261.25
2022-11-08T20:23:15.758Z,100264.09
2022-11-08T20:25:42.735Z,100255.19
2022-11-08T20:28:09.528Z,100243.16
2022-11-08T20:30:36.250Z,100243.09
2022-11-08T20:33:03.079Z,100243.44
2022-11-08T20:35:31.985Z,100255.88
2022-11-08T20:38:01.015Z,100249.72
2022-11-08T20:40:27.665Z,100245.25
2022-11-08T20:42:54.317Z,100250.47
2022-11-08T20:45:20.935Z,100245.91
2022-11-08T20:47:48.285Z,100246.56
2022-11-08T20:50:15.610Z,100252.53
2022-11-08T20:52:42.162Z,100257.59
2022-11-08T20:55:08.982Z,100260.28
2022-11-08T20:57:35.597Z,100254.28
2022-11-08T21:00:13.127Z,100254.25
2022-11-08T21:02:40.694Z,100258.88
2022-11-08T21:05:07.622Z,100254.44
2022-11-08T21:10:42.214Z,100275.63
2022-11-08T21:13:07.968Z,100274.56
2022-11-08T21:15:35.938Z,100263.94
2022-11-08T21:18:02.618Z,100254.69
2022-11-08T21:20:29.216Z,100259.97
2022-11-08T21:22:55.788Z,100267.47
2022-11-08T21:25:25.273Z,100262.34
2022-11-08T21:27:51.917Z,100257.31
2022-11-08T21:30:18.549Z,100259.00
2022-11-08T21:32:45.376Z,100263.53
2022-11-08T21:35:12.033Z,100259.09
2022-11-08T21:37:38.660Z,100255.34
2022-11-08T21:40:05.733Z,100257.31
2022-11-08T21:42:38.030Z,100260.88
2022-11-08T21:45:06.684Z,100267.69
2022-11-08T21:47:33.635Z,100269.31
2022-11-08T21:50:00.335Z,100268.66
2022-11-08T21:52:27.262Z,100273.94
2022-11-08T21:54:54.593Z,100274.75
2022-11-08T21:57:21.284Z,100267.47
2022-11-08T21:59:47.966Z,100266.50
2022-11-08T22:02:15.520Z,100270.22
2022-11-08T22:04:42.582Z,100262.38
2022-11-08T22:07:09.316Z,100268.75
2022-11-08T22:09:36.387Z,100265.97
2022-11-08T22:12:03.292Z,100261.53
2022-11-08T22:14:31.511Z,100266.00
2022-11-08T22:16:58.104Z,100265.25
2022-11-08T22:19:24.797Z,100269.47
2022-11-08T22:21:51.413Z,100271.91
2022-11-08T22:24:20.578Z,100269.03
2022-11-08T22:26:49.047Z,100268.59
2022-11-08T22:29:16.125Z,100273.94
2022-11-08T22:31:43.264Z,100274.84
2022-11-08T22:34:10.263Z,100273.03
2022-11-08T22:36:43.983Z,100274.25
2022-11-08T22:39:13.025Z,100270.06
2022-11-08T22:41:42.500Z,100271.72
2022-11-08T22:44:12.320Z,100274.69
2022-11-08T22:46:40.251Z,100262.28
2022-11-08T22:49:07.016Z,100266.88
2022-11-08T22:51:33.855Z,100260.81
2022-11-08T22:54:00.581Z,100264.22
2022-11-08T22:56:27.537Z,100268.75
2022-11-08T22:58:54.242Z,100264.41
2022-11-08T23:01:20.929Z,100258.25
2022-11-08T23:03:48.164Z,100261.00
2022-11-08T23:06:15.878Z,100257.16
2022-11-08T23:08:43.011Z,100266.16
2022-11-08T23:11:28.354Z,100274.22
2022-11-08T23:14:13.683Z,100275.97
2022-11-08T23:16:43.077Z,100274.22
2022-11-08T23:19:36.914Z,100271.56
2022-11-08T23:22:24.318Z,100268.09
2022-11-08T23:24:51.038Z,100261.03
2022-11-08T23:27:37.802Z,100265.09
2022-11-08T23:30:25.078Z,100268.75
2022-11-08T23:32:52.479Z,100266.06
2022-11-08T23:35:20.436Z,100259.22
2022-11-08T23:37:47.108Z,100258.25
2022-11-08T23:40:36.769Z,100259.03
2022-11-08T23:43:25.534Z,100260.81
2022-11-08T23:45:52.543Z,100260.88
2022-11-08T23:48:19.296Z,100267.03
2022-11-08T23:50:50.864Z,100260.91
2022-11-08T23:53:18.914Z,100256.47
2022-11-08T23:55:45.857Z,100264.06
2022-11-08T23:58:14.211Z,100272.22
